createdAt,value
2018-12-16T00:00:45.175Z,75.17
2018-12-16T00:03:14.860Z,75.15
2018-12-16T00:05:44.533Z,75.50
2018-12-16T00:08:14.235Z,75.63
2018-12-16T00:10:43.897Z,75.85
2018-12-16T00:13:13.584Z,75.00
2018-12-16T00:15:43.290Z,75.71
2018-12-16T00:18:13.001Z,75.43
2018-12-16T00:20:42.728Z,75.89
2018-12-16T00:23:12.360Z,75.36
2018-12-16T00:25:42.049Z,75.72
2018-12-16T00:28:11.696Z,75.56
2018-12-16T00:30:41.352Z,75.67
2018-12-16T00:33:11.000Z,75.49
2018-12-16T00:35:40.865Z,75.38
2018-12-16T00:38:10.557Z,74.79
2018-12-16T00:40:40.265Z,75.62
2018-12-16T00:43:09.961Z,75.64
2018-12-16T00:45:39.652Z,75.16
2018-12-16T00:48:09.333Z,75.38
2018-12-16T00:50:39.040Z,75.46
2018-12-16T00:53:08.753Z,74.97
2018-12-16T00:55:38.412Z,75.31
2018-12-16T00:58:08.076Z,74.98
2018-12-16T01:00:37.835Z,74.97
2018-12-16T01:03:07.621Z,75.36
2018-12-16T01:05:37.291Z,74.91
2018-12-16T01:08:07.006Z,75.12
2018-12-16T01:10:36.727Z,75.00
2018-12-16T01:13:06.419Z,75.06
2018-12-16T01:15:36.544Z,74.91
2018-12-16T01:18:06.228Z,75.48
2018-12-16T01:20:35.931Z,74.78
2018-12-16T01:23:05.602Z,74.96
2018-12-16T01:25:35.273Z,74.60
2018-12-16T01:28:04.945Z,74.97
2018-12-16T01:30:34.628Z,75.11
2018-12-16T01:33:04.273Z,74.75
2018-12-16T01:35:33.949Z,75.02
2018-12-16T01:38:03.601Z,74.67
2018-12-16T01:40:33.306Z,74.93
2018-12-16T01:43:03.021Z,74.85
2018-12-16T01:45:32.700Z,74.46
2018-12-16T01:48:02.437Z,74.41
2018-12-16T01:50:32.076Z,74.48
2018-12-16T01:53:01.775Z,73.78
2018-12-16T01:55:31.441Z,74.06
2018-12-16T01:58:01.133Z,73.91
2018-12-16T02:00:30.789Z,74.32
2018-12-16T02:03:00.467Z,74.29
2018-12-16T02:05:30.109Z,73.97
2018-12-16T02:07:59.793Z,74.03
2018-12-16T02:10:29.523Z,74.28
2018-12-16T02:12:59.159Z,74.14
2018-12-16T02:15:28.880Z,74.44
2018-12-16T02:17:58.532Z,74.24
2018-12-16T02:20:28.254Z,74.26
2018-12-16T02:22:57.925Z,74.37
2018-12-16T02:25:27.616Z,74.32
2018-12-16T02:27:57.325Z,73.63
2018-12-16T02:30:28.903Z,73.76
2018-12-16T02:32:58.650Z,73.10
2018-12-16T02:35:28.286Z,73.74
2018-12-16T02:37:57.980Z,73.43
2018-12-16T02:40:27.621Z,73.40
2018-12-16T02:42:57.290Z,73.53
2018-12-16T02:45:26.994Z,73.06
2018-12-16T02:47:56.644Z,73.64
2018-12-16T02:50:26.337Z,73.15
2018-12-16T02:52:56.059Z,73.66
2018-12-16T02:55:25.710Z,73.33
2018-12-16T02:57:55.405Z,73.64
2018-12-16T03:00:25.213Z,73.70
2018-12-16T03:02:54.886Z,73.56
2018-12-16T03:05:24.677Z,73.32
2018-12-16T03:07:54.337Z,74.05
2018-12-16T03:10:24.039Z,74.14
2018-12-16T03:12:53.698Z,74.05
2018-12-16T03:15:23.423Z,74.62
2018-12-16T03:17:53.317Z,74.45
2018-12-16T03:20:22.968Z,74.10
2018-12-16T03:22:52.649Z,73.96
2018-12-16T03:25:22.333Z,74.00
2018-12-16T03:27:52.021Z,74.04
2018-12-16T03:30:27.966Z,73.74
2018-12-16T03:32:57.642Z,73.71
2018-12-16T03:35:27.394Z,73.88
2018-12-16T03:37:57.088Z,74.42
2018-12-16T03:40:26.757Z,73.39
2018-12-16T03:42:56.456Z,74.11
2018-12-16T03:45:26.390Z,73.96
2018-12-16T03:47:56.077Z,73.67
2018-12-16T03:50:25.749Z,74.03
2018-12-16T03:52:55.490Z,73.27
2018-12-16T03:55:25.224Z,73.25
2018-12-16T03:57:54.935Z,73.45
2018-12-16T04:00:24.591Z,73.49
2018-12-16T04:02:54.287Z,73.69
2018-12-16T04:05:23.955Z,73.31
2018-12-16T04:07:53.647Z,73.63
2018-12-16T04:10:23.360Z,73.46
2018-12-16T04:12:53.040Z,73.40
2018-12-16T04:15:22.765Z,73.24
2018-12-16T04:17:52.501Z,73.47
2018-12-16T04:20:22.157Z,73.31
2018-12-16T04:22:51.848Z,73.41
2018-12-16T04:25:22.830Z,73.28
2018-12-16T04:27:52.498Z,73.87
2018-12-16T04:30:22.210Z,73.63
2018-12-16T04:32:51.868Z,73.59
2018-12-16T04:35:21.533Z,73.51
2018-12-16T04:37:51.204Z,73.38
2018-12-16T04:40:20.871Z,74.18
2018-12-16T04:42:50.593Z,73.61
2018-12-16T04:45:20.316Z,74.36
2018-12-16T04:47:50.017Z,73.75
2018-12-16T04:50:19.649Z,73.98
2018-12-16T04:52:49.317Z,73.93
2018-12-16T04:55:19.030Z,74.40
2018-12-16T04:57:48.677Z,74.29
2018-12-16T05:00:18.352Z,74.56
2018-12-16T05:02:48.039Z,74.45
2018-12-16T05:05:17.718Z,74.92
2018-12-16T05:07:48.113Z,74.37
2018-12-16T05:10:30.643Z,74.55
2018-12-16T05:13:00.313Z,74.42
2018-12-16T05:15:30.017Z,74.79
2018-12-16T05:17:59.701Z,74.91
2018-12-16T05:20:29.349Z,75.25
2018-12-16T05:22:59.041Z,75.04
2018-12-16T05:25:28.712Z,75.02
2018-12-16T05:27:58.409Z,75.50
2018-12-16T05:30:28.081Z,75.03
2018-12-16T05:32:57.740Z,75.50
2018-12-16T05:35:27.397Z,76.38
2018-12-16T05:37:57.085Z,76.08
2018-12-16T05:40:26.778Z,76.15
2018-12-16T05:42:56.431Z,75.77
2018-12-16T05:45:26.136Z,76.36
2018-12-16T05:47:55.829Z,76.07
2018-12-16T05:50:25.519Z,75.47
2018-12-16T05:52:55.197Z,75.34
2018-12-16T05:55:24.924Z,75.25
2018-12-16T05:57:54.579Z,75.61
2018-12-16T06:00:24.321Z,75.05
2018-12-16T06:02:53.968Z,75.19
2018-12-16T06:05:23.625Z,75.57
2018-12-16T06:07:53.277Z,75.51
2018-12-16T06:10:22.951Z,75.42
2018-12-16T06:12:52.624Z,75.56
2018-12-16T06:15:22.277Z,75.30
2018-12-16T06:17:51.970Z,75.97
2018-12-16T06:20:21.701Z,75.67
2018-12-16T06:22:51.368Z,75.56
2018-12-16T06:25:21.034Z,76.26
2018-12-16T06:27:50.725Z,76.29
2018-12-16T06:30:21.231Z,76.53
2018-12-16T06:32:50.889Z,76.82
2018-12-16T06:35:20.589Z,76.03
2018-12-16T06:37:50.252Z,76.92
2018-12-16T06:40:19.952Z,76.13
2018-12-16T06:42:49.591Z,75.76
2018-12-16T06:45:19.323Z,76.43
2018-12-16T06:47:48.968Z,76.61
2018-12-16T06:50:18.644Z,75.92
2018-12-16T06:52:48.344Z,75.46
2018-12-16T06:55:18.070Z,76.12
2018-12-16T06:57:47.793Z,75.56
2018-12-16T07:00:17.617Z,76.76
2018-12-16T07:02:51.317Z,76.56
2018-12-16T07:05:21.003Z,76.41
2018-12-16T07:07:50.676Z,76.99
2018-12-16T07:10:20.497Z,76.57
2018-12-16T07:12:50.157Z,76.00
2018-12-16T07:15:19.861Z,76.14
2018-12-16T07:17:49.557Z,76.05
2018-12-16T07:20:19.256Z,76.02
2018-12-16T07:22:48.936Z,76.21
2018-12-16T07:25:18.630Z,76.11
2018-12-16T07:27:48.252Z,75.94
2018-12-16T07:30:17.960Z,75.86
2018-12-16T07:32:47.634Z,75.45
2018-12-16T07:35:17.299Z,75.06
2018-12-16T07:37:47.011Z,75.57
2018-12-16T07:40:16.778Z,75.76
2018-12-16T07:42:46.573Z,76.03
2018-12-16T07:45:16.216Z,75.26
2018-12-16T07:47:46.399Z,75.37
2018-12-16T07:50:16.303Z,75.14
2018-12-16T07:52:45.964Z,74.94
2018-12-16T07:55:15.631Z,74.95
2018-12-16T07:57:46.214Z,75.53
2018-12-16T08:00:15.952Z,74.15
2018-12-16T08:02:45.610Z,74.94
2018-12-16T08:05:15.347Z,75.11
2018-12-16T08:07:45.027Z,75.04
2018-12-16T08:10:14.733Z,75.53
2018-12-16T08:12:44.374Z,75.94
2018-12-16T08:15:14.065Z,75.60
2018-12-16T08:17:43.737Z,75.94
2018-12-16T08:20:13.430Z,75.02
2018-12-16T08:22:43.172Z,75.57
2018-12-16T08:25:12.929Z,75.38
2018-12-16T08:27:42.599Z,75.85
2018-12-16T08:30:12.336Z,75.87
2018-12-16T08:32:42.107Z,75.17
2018-12-16T08:35:11.820Z,76.93
2018-12-16T08:37:41.528Z,76.58
2018-12-16T08:40:11.206Z,76.54
2018-12-16T08:42:40.929Z,76.59
2018-12-16T08:45:10.618Z,76.34
2018-12-16T08:47:40.322Z,76.40
2018-12-16T08:50:10.030Z,76.83
2018-12-16T08:52:39.694Z,76.94
2018-12-16T08:55:09.517Z,76.86
2018-12-16T08:57:39.208Z,76.95
2018-12-16T09:00:09.404Z,77.03
2018-12-16T09:02:39.096Z,76.47
2018-12-16T09:05:08.837Z,76.62
2018-12-16T09:07:38.525Z,76.87
2018-12-16T09:10:09.309Z,76.49
2018-12-16T09:12:38.984Z,76.67
2018-12-16T09:15:08.883Z,76.56
2018-12-16T09:17:38.709Z,76.35
2018-12-16T09:20:08.573Z,76.42
2018-12-16T09:22:38.208Z,76.30
2018-12-16T09:25:07.930Z,76.35
2018-12-16T09:27:37.583Z,76.27
2018-12-16T09:30:09.532Z,76.52
2018-12-16T09:32:39.215Z,75.99
2018-12-16T09:35:08.906Z,76.71
2018-12-16T09:37:38.589Z,76.62
2018-12-16T09:40:08.725Z,76.41
2018-12-16T09:42:38.442Z,76.73
2018-12-16T09:45:08.154Z,76.40
2018-12-16T09:47:38.091Z,76.34
2018-12-16T09:50:07.829Z,76.12
2018-12-16T09:52:37.477Z,76.36
2018-12-16T09:55:07.793Z,76.58
2018-12-16T09:57:37.465Z,76.54
2018-12-16T10:00:08.777Z,76.51
2018-12-16T10:02:38.448Z,77.46
2018-12-16T10:05:08.276Z,77.19
2018-12-16T10:07:38.063Z,77.41
2018-12-16T10:10:10.149Z,77.87
2018-12-16T10:12:39.828Z,77.15
2018-12-16T10:15:09.692Z,77.79
2018-12-16T10:17:39.400Z,77.13
2018-12-16T10:20:10.770Z,77.48
2018-12-16T10:22:40.441Z,76.95
2018-12-16T10:25:10.119Z,77.87
2018-12-16T10:27:39.804Z,77.34
2018-12-16T10:30:10.208Z,77.46
2018-12-16T10:32:39.898Z,76.97
2018-12-16T10:35:09.553Z,77.18
2018-12-16T10:37:39.261Z,77.21
2018-12-16T10:40:09.210Z,76.35
2018-12-16T10:42:38.915Z,76.44
2018-12-16T10:45:09.109Z,78.09
2018-12-16T10:47:38.753Z,77.44
2018-12-16T10:50:09.188Z,78.50
2018-12-16T10:52:38.884Z,77.19
2018-12-16T10:55:08.565Z,77.69
2018-12-16T10:57:38.313Z,78.64
2018-12-16T11:00:12.989Z,78.16
2018-12-16T11:02:42.881Z,78.50
2018-12-16T11:05:12.658Z,77.88
2018-12-16T11:07:42.364Z,78.70
2018-12-16T11:10:12.012Z,78.32
2018-12-16T11:12:42.106Z,77.97
2018-12-16T11:15:11.792Z,77.80
2018-12-16T11:17:41.509Z,77.46
2018-12-16T11:20:11.251Z,77.88
2018-12-16T11:22:40.989Z,77.45
2018-12-16T11:25:13.281Z,76.88
2018-12-16T11:27:42.972Z,77.37
2018-12-16T11:30:13.346Z,76.98
2018-12-16T11:32:43.034Z,76.34
2018-12-16T11:35:12.701Z,76.73
2018-12-16T11:37:42.402Z,76.61
2018-12-16T11:40:12.041Z,76.25
2018-12-16T11:42:41.769Z,76.37
2018-12-16T11:45:11.464Z,75.75
2018-12-16T11:47:41.098Z,75.73
2018-12-16T11:50:10.824Z,75.88
2018-12-16T11:52:40.485Z,75.83
2018-12-16T11:55:12.932Z,75.67
2018-12-16T11:57:41.935Z,76.24
2018-12-16T12:00:11.738Z,76.68
2018-12-16T12:02:41.445Z,77.33
2018-12-16T12:05:11.110Z,77.38
2018-12-16T12:07:40.824Z,78.13
2018-12-16T12:10:10.579Z,77.77
2018-12-16T12:12:40.264Z,77.94
2018-12-16T12:15:09.952Z,78.57
2018-12-16T12:17:39.648Z,79.33
2018-12-16T12:20:09.528Z,79.08
2018-12-16T12:22:39.413Z,78.96
2018-12-16T12:25:09.068Z,78.22
2018-12-16T12:27:38.768Z,78.68
2018-12-16T12:30:10.418Z,78.80
2018-12-16T12:32:40.110Z,79.39
2018-12-16T12:35:09.952Z,79.43
2018-12-16T12:37:39.697Z,79.00
2018-12-16T12:40:09.393Z,79.24
2018-12-16T12:42:39.088Z,80.09
2018-12-16T12:45:08.956Z,79.72
2018-12-16T12:47:38.644Z,79.50
2018-12-16T12:50:09.029Z,80.42
2018-12-16T12:52:38.748Z,80.27
2018-12-16T12:55:08.434Z,80.99
2018-12-16T12:57:38.153Z,80.02
2018-12-16T13:00:12.072Z,80.15
2018-12-16T13:02:41.767Z,79.51
2018-12-16T13:05:11.504Z,78.10
2018-12-16T13:07:41.250Z,76.90
2018-12-16T13:10:12.397Z,75.74
2018-12-16T13:12:42.084Z,75.07
2018-12-16T13:15:11.801Z,75.31
2018-12-16T13:17:41.502Z,75.02
2018-12-16T13:20:11.201Z,74.67
2018-12-16T13:22:40.906Z,75.10
2018-12-16T13:25:21.378Z,75.17
2018-12-16T13:27:51.073Z,74.71
2018-12-16T13:30:20.781Z,75.30
2018-12-16T13:32:50.417Z,75.58
2018-12-16T13:35:20.116Z,75.84
2018-12-16T13:37:49.736Z,75.46
2018-12-16T13:40:19.440Z,75.36
2018-12-16T13:42:49.117Z,75.34
2018-12-16T13:45:18.772Z,74.94
2018-12-16T13:47:48.520Z,75.44
2018-12-16T13:50:18.237Z,75.74
2018-12-16T13:52:47.928Z,75.07
2018-12-16T13:55:17.577Z,75.32
2018-12-16T13:57:47.627Z,75.34
2018-12-16T14:00:17.340Z,75.58
2018-12-16T14:02:47.044Z,75.51
2018-12-16T14:05:16.712Z,75.26
2018-12-16T14:07:46.393Z,75.11
2018-12-16T14:10:16.095Z,75.65
2018-12-16T14:12:45.753Z,74.53
2018-12-16T14:15:15.403Z,74.86
2018-12-16T14:17:45.752Z,75.03
2018-12-16T14:20:15.531Z,75.08
2018-12-16T14:22:45.208Z,74.84
2018-12-16T14:25:14.857Z,75.27
2018-12-16T14:27:44.500Z,75.86
2018-12-16T14:30:14.168Z,76.56
2018-12-16T14:32:43.829Z,76.15
2018-12-16T14:35:14.088Z,76.19
2018-12-16T14:37:43.838Z,75.46
2018-12-16T14:40:13.552Z,75.87
2018-12-16T14:42:43.213Z,75.40
2018-12-16T14:45:12.907Z,76.01
2018-12-16T14:47:42.606Z,75.95
2018-12-16T14:50:12.372Z,76.85
2018-12-16T14:52:42.079Z,77.21
2018-12-16T14:55:11.707Z,77.67
2018-12-16T14:57:41.362Z,77.72
2018-12-16T15:00:12.107Z,77.13
2018-12-16T15:02:41.855Z,76.89
2018-12-16T15:05:11.660Z,77.05
2018-12-16T15:07:41.320Z,77.56
2018-12-16T15:10:11.920Z,77.49
2018-12-16T15:12:41.634Z,77.68
2018-12-16T15:15:11.343Z,77.87
2018-12-16T15:17:42.870Z,77.84
2018-12-16T15:20:12.725Z,77.58
2018-12-16T15:22:42.444Z,78.28
2018-12-16T15:25:12.101Z,78.26
2018-12-16T15:27:41.758Z,78.11
2018-12-16T15:30:11.690Z,77.96
2018-12-16T15:32:41.337Z,77.53
2018-12-16T15:35:10.984Z,77.26
2018-12-16T15:37:40.703Z,77.89
2018-12-16T15:40:10.369Z,78.36
2018-12-16T15:42:40.085Z,78.75
2018-12-16T15:45:10.866Z,78.96
2018-12-16T15:47:40.538Z,79.28
2018-12-16T15:50:10.720Z,79.13
2018-12-16T15:52:40.415Z,79.43
2018-12-16T15:55:11.197Z,79.46
2018-12-16T15:57:40.826Z,79.03
2018-12-16T16:00:10.789Z,79.52
2018-12-16T16:02:40.468Z,79.63
2018-12-16T16:05:10.124Z,79.32
2018-12-16T16:07:39.784Z,79.38
2018-12-16T16:10:09.904Z,80.26
2018-12-16T16:12:39.577Z,80.13
2018-12-16T16:15:09.788Z,80.49
2018-12-16T16:17:39.460Z,80.19
2018-12-16T16:20:09.193Z,80.25
2018-12-16T16:22:38.930Z,80.70
2018-12-16T16:25:08.737Z,80.47
2018-12-16T16:27:38.492Z,80.17
2018-12-16T16:30:08.889Z,80.32
2018-12-16T16:32:38.549Z,79.98
2018-12-16T16:35:08.261Z,79.74
2018-12-16T16:37:38.299Z,79.99
2018-12-16T16:40:08.331Z,80.37
2018-12-16T16:42:37.997Z,79.86
2018-12-16T16:45:07.778Z,79.80
2018-12-16T16:47:37.393Z,79.75
2018-12-16T16:50:07.385Z,79.75
2018-12-16T16:52:37.053Z,79.84
2018-12-16T16:55:07.091Z,80.02
2018-12-16T16:57:36.746Z,79.51
2018-12-16T17:00:07.648Z,79.83
2018-12-16T17:02:37.285Z,78.95
2018-12-16T17:05:07.330Z,79.18
2018-12-16T17:07:36.957Z,78.78
2018-12-16T17:10:07.892Z,78.42
2018-12-16T17:12:37.534Z,78.70
2018-12-16T17:15:07.666Z,78.38
2018-12-16T17:17:37.440Z,78.72
2018-12-16T17:20:07.396Z,78.53
2018-12-16T17:22:37.065Z,78.97
2018-12-16T17:25:06.890Z,78.87
2018-12-16T17:27:36.621Z,78.64
2018-12-16T17:30:08.406Z,78.81
2018-12-16T17:32:38.077Z,79.76
2018-12-16T17:35:07.757Z,79.28
2018-12-16T17:37:37.427Z,78.51
2018-12-16T17:40:07.496Z,78.48
2018-12-16T17:42:37.172Z,78.77
2018-12-16T17:45:07.796Z,78.47
2018-12-16T17:47:37.457Z,78.13
2018-12-16T17:50:07.565Z,78.92
2018-12-16T17:52:37.234Z,78.29
2018-12-16T17:55:07.165Z,78.56
2018-12-16T17:57:36.817Z,78.62
2018-12-16T18:00:07.608Z,78.55
2018-12-16T18:02:37.228Z,78.91
2018-12-16T18:05:07.421Z,78.63
2018-12-16T18:07:37.111Z,78.72
2018-12-16T18:10:07.118Z,78.67
2018-12-16T18:12:36.737Z,78.35
2018-12-16T18:15:07.850Z,78.73
2018-12-16T18:17:37.536Z,78.68
2018-12-16T18:20:07.964Z,77.94
2018-12-16T18:22:37.613Z,77.70
2018-12-16T18:25:07.364Z,77.73
2018-12-16T18:27:37.050Z,78.26
2018-12-16T18:30:08.137Z,79.04
2018-12-16T18:32:37.819Z,79.07
2018-12-16T18:35:07.638Z,78.56
2018-12-16T18:37:37.368Z,78.47
2018-12-16T18:40:07.378Z,78.27
2018-12-16T18:42:37.141Z,78.36
2018-12-16T18:45:07.369Z,78.62
2018-12-16T18:47:37.073Z,78.07
2018-12-16T18:50:07.969Z,78.71
2018-12-16T18:52:37.689Z,78.43
2018-12-16T18:55:08.327Z,78.67
2018-12-16T18:57:38.156Z,79.02
2018-12-16T19:00:11.354Z,79.08
2018-12-16T19:02:41.062Z,78.60
2018-12-16T19:05:10.765Z,79.24
2018-12-16T19:07:40.713Z,79.39
2018-12-16T19:10:10.470Z,79.22
2018-12-16T19:12:40.136Z,79.30
2018-12-16T19:15:10.412Z,80.06
2018-12-16T19:17:40.063Z,79.96
2018-12-16T19:20:09.770Z,79.92
2018-12-16T19:22:39.439Z,79.74
2018-12-16T19:25:09.140Z,79.88
2018-12-16T19:27:38.846Z,79.71
2018-12-16T19:30:09.617Z,80.51
2018-12-16T19:32:39.255Z,80.41
2018-12-16T19:35:09.522Z,80.60
2018-12-16T19:37:39.184Z,80.39
2018-12-16T19:40:08.905Z,80.52
2018-12-16T19:42:38.674Z,80.74
2018-12-16T19:45:08.526Z,80.22
2018-12-16T19:47:38.245Z,80.37
2018-12-16T19:50:08.896Z,80.21
2018-12-16T19:52:38.593Z,80.25
2018-12-16T19:55:08.365Z,79.96
2018-12-16T19:57:38.048Z,80.22
2018-12-16T20:00:08.221Z,80.13
2018-12-16T20:02:37.948Z,80.78
2018-12-16T20:05:12.560Z,80.61
2018-12-16T20:07:42.308Z,80.70
2018-12-16T20:10:12.013Z,80.73
2018-12-16T20:12:41.752Z,80.40
2018-12-16T20:15:11.454Z,80.32
2018-12-16T20:17:41.164Z,80.81
2018-12-16T20:20:11.154Z,81.35
2018-12-16T20:22:40.837Z,81.47
2018-12-16T20:25:10.577Z,80.98
2018-12-16T20:27:40.251Z,80.64
2018-12-16T20:30:10.369Z,80.45
2018-12-16T20:32:40.004Z,80.20
2018-12-16T20:35:09.745Z,79.94
2018-12-16T20:37:39.934Z,79.41
2018-12-16T20:40:09.620Z,79.91
2018-12-16T20:42:39.289Z,79.47
2018-12-16T20:45:08.986Z,79.60
2018-12-16T20:47:38.660Z,79.68
2018-12-16T20:50:08.853Z,79.35
2018-12-16T20:52:38.555Z,79.48
2018-12-16T20:55:08.328Z,78.83
2018-12-16T20:57:38.021Z,78.83
2018-12-16T21:00:09.506Z,78.74
2018-12-16T21:02:39.209Z,79.53
2018-12-16T21:05:08.885Z,79.11
2018-12-16T21:07:38.612Z,78.62
2018-12-16T21:10:08.628Z,78.87
2018-12-16T21:12:43.408Z,78.74
2018-12-16T21:15:18.157Z,78.73
2018-12-16T21:17:52.905Z,78.29
2018-12-16T21:20:22.577Z,78.94
2018-12-16T21:22:52.249Z,78.78
2018-12-16T21:25:21.925Z,78.92
2018-12-16T21:27:51.605Z,79.21
2018-12-16T21:30:21.274Z,78.84
2018-12-16T21:32:50.936Z,78.62
2018-12-16T21:35:20.682Z,78.95
2018-12-16T21:37:50.410Z,78.46
2018-12-16T21:40:20.129Z,78.50
2018-12-16T21:42:49.833Z,79.06
2018-12-16T21:45:19.544Z,78.90
2018-12-16T21:47:49.223Z,79.39
2018-12-16T21:50:18.903Z,79.14
2018-12-16T21:52:48.578Z,78.72
2018-12-16T21:55:18.277Z,78.16
2018-12-16T21:57:47.927Z,78.61
2018-12-16T22:00:17.613Z,78.03
2018-12-16T22:02:47.241Z,77.46
2018-12-16T22:05:17.237Z,77.43
2018-12-16T22:07:47.177Z,78.56
2018-12-16T22:10:16.892Z,77.71
2018-12-16T22:12:46.543Z,77.78
2018-12-16T22:15:16.247Z,77.36
2018-12-16T22:17:46.009Z,76.80
2018-12-16T22:20:15.656Z,76.80
2018-12-16T22:22:45.352Z,76.60
2018-12-16T22:25:15.014Z,76.78
2018-12-16T22:27:44.768Z,77.12
2018-12-16T22:30:14.426Z,76.25
2018-12-16T22:32:44.142Z,76.29
2018-12-16T22:35:13.821Z,76.01
2018-12-16T22:37:43.485Z,75.72
2018-12-16T22:40:13.296Z,75.29
2018-12-16T22:42:42.968Z,75.48
2018-12-16T22:45:12.917Z,75.00
2018-12-16T22:47:42.590Z,75.16
2018-12-16T22:50:12.289Z,75.36
2018-12-16T22:52:41.976Z,74.95
2018-12-16T22:55:11.620Z,74.62
2018-12-16T22:57:46.918Z,74.50
2018-12-16T23:00:18.249Z,73.55
2018-12-16T23:02:47.969Z,73.22
2018-12-16T23:05:17.701Z,72.71
2018-12-16T23:07:47.404Z,72.37
2018-12-16T23:10:17.085Z,71.64
2018-12-16T23:12:46.772Z,72.48
2018-12-16T23:15:16.555Z,71.64
2018-12-16T23:17:46.325Z,71.36
2018-12-16T23:20:19.714Z,71.39
2018-12-16T23:22:49.504Z,70.03
2018-12-16T23:25:19.328Z,70.30
2018-12-16T23:27:54.092Z,69.95
2018-12-16T23:30:20.694Z,69.35
2018-12-16T23:32:50.337Z,69.58
2018-12-16T23:35:20.038Z,70.22
2018-12-16T23:37:49.740Z,70.22
2018-12-16T23:40:19.394Z,69.81
2018-12-16T23:42:49.086Z,69.72
2018-12-16T23:45:18.714Z,69.25
2018-12-16T23:47:48.413Z,68.96
2018-12-16T23:50:18.052Z,68.93
2018-12-16T23:52:47.725Z,68.42
2018-12-16T23:55:17.408Z,67.98
2018-12-16T23:57:47.113Z,68.07
